createdAt,value
2017-09-25T00:00:53.357Z,0
2017-09-25T00:02:03.387Z,0
2017-09-25T00:03:13.770Z,0
2017-09-25T00:04:24.126Z,0
2017-09-25T00:05:34.163Z,0
2017-09-25T00:06:44.501Z,0
2017-09-25T00:07:54.859Z,0
2017-09-25T00:09:05.221Z,0
2017-09-25T00:10:15.261Z,0
2017-09-25T00:11:25.295Z,0
2017-09-25T00:12:35.655Z,0
2017-09-25T00:13:45.985Z,0
2017-09-25T00:14:56.333Z,0
2017-09-25T00:16:06.694Z,0
2017-09-25T00:17:17.041Z,0
2017-09-25T00:18:27.435Z,0
2017-09-25T00:19:37.452Z,0
2017-09-25T00:20:47.490Z,0
2017-09-25T00:21:57.821Z,0
2017-09-25T00:23:07.860Z,0
2017-09-25T00:24:18.221Z,0
2017-09-25T00:25:28.571Z,0
2017-09-25T00:26:38.921Z,0
2017-09-25T00:27:48.628Z,0
2017-09-25T00:28:58.674Z,0
2017-09-25T00:30:09.258Z,0
2017-09-25T00:31:19.613Z,0
2017-09-25T00:32:29.978Z,0
2017-09-25T00:33:40.004Z,0
2017-09-25T00:34:50.034Z,0
2017-09-25T00:36:00.410Z,0
2017-09-25T00:37:10.451Z,0
2017-09-25T00:38:20.794Z,0
2017-09-25T00:39:31.146Z,0
2017-09-25T00:40:41.516Z,0
2017-09-25T00:41:51.530Z,0
2017-09-25T00:43:01.872Z,0
2017-09-25T00:44:12.221Z,0
2017-09-25T00:45:22.574Z,0
2017-09-25T00:46:32.620Z,0
2017-09-25T00:47:42.959Z,0
2017-09-25T00:48:53.310Z,0
2017-09-25T00:50:03.656Z,0
2017-09-25T00:51:13.709Z,0
2017-09-25T00:52:23.424Z,0
2017-09-25T00:53:33.497Z,0
2017-09-25T00:54:43.838Z,0
2017-09-25T00:55:54.192Z,0
2017-09-25T00:57:04.240Z,0
2017-09-25T00:58:14.584Z,0
2017-09-25T00:59:24.341Z,0
2017-09-25T01:00:34.372Z,0
2017-09-25T01:01:44.400Z,0
2017-09-25T01:02:54.749Z,0
2017-09-25T01:04:05.097Z,0
2017-09-25T01:05:15.452Z,0
2017-09-25T01:06:25.496Z,0
2017-09-25T01:07:35.839Z,0
2017-09-25T01:08:45.861Z,0
2017-09-25T01:09:56.207Z,0
2017-09-25T01:11:06.612Z,0
2017-09-25T01:12:16.940Z,0
2017-09-25T01:13:26.976Z,0
2017-09-25T01:14:37.327Z,0
2017-09-25T01:15:47.366Z,0
2017-09-25T01:16:57.400Z,0
2017-09-25T01:18:07.748Z,0
2017-09-25T01:19:18.112Z,0
2017-09-25T01:20:28.451Z,0
2017-09-25T01:21:38.156Z,0
2017-09-25T01:22:48.192Z,0
2017-09-25T01:23:58.226Z,0
2017-09-25T01:25:08.580Z,0
2017-09-25T01:26:18.936Z,0
2017-09-25T01:27:29.280Z,0
2017-09-25T01:28:39.351Z,0
2017-09-25T01:29:49.394Z,0
2017-09-25T01:30:59.723Z,0
2017-09-25T01:32:10.070Z,0
2017-09-25T01:33:20.406Z,0
2017-09-25T01:34:30.817Z,0
2017-09-25T01:35:41.166Z,0
2017-09-25T01:36:51.500Z,0
2017-09-25T01:38:01.527Z,0
2017-09-25T01:39:11.883Z,0
2017-09-25T01:40:21.585Z,0
2017-09-25T01:41:31.612Z,0
2017-09-25T01:42:41.955Z,0
2017-09-25T01:43:52.312Z,0
2017-09-25T01:45:02.669Z,0
2017-09-25T01:46:12.695Z,0
2017-09-25T01:47:23.032Z,0
2017-09-25T01:48:33.389Z,0
2017-09-25T01:49:43.725Z,0
2017-09-25T01:50:53.433Z,0
2017-09-25T01:52:03.184Z,0
2017-09-25T01:53:13.536Z,0
2017-09-25T01:54:23.564Z,0
2017-09-25T01:55:33.900Z,0
2017-09-25T01:56:44.260Z,0
2017-09-25T01:57:54.657Z,0
2017-09-25T01:59:04.999Z,0
2017-09-25T02:00:14.700Z,0
2017-09-25T02:01:25.053Z,0
2017-09-25T02:02:35.088Z,0
2017-09-25T02:03:45.181Z,0
2017-09-25T02:04:55.533Z,0
2017-09-25T02:06:05.895Z,0
2017-09-25T02:07:15.923Z,0
2017-09-25T02:08:26.290Z,0
2017-09-25T02:09:36.644Z,0
2017-09-25T02:10:46.680Z,0
2017-09-25T02:11:56.715Z,0
2017-09-25T02:13:07.069Z,0
2017-09-25T02:14:17.427Z,0
2017-09-25T02:15:27.775Z,0
2017-09-25T02:16:37.827Z,0
2017-09-25T02:17:48.169Z,0
2017-09-25T02:18:58.201Z,0
2017-09-25T02:20:08.543Z,0
2017-09-25T02:21:18.887Z,0
2017-09-25T02:22:29.243Z,0
2017-09-25T02:23:39.597Z,0
2017-09-25T02:24:49.608Z,0
2017-09-25T02:25:59.956Z,0
2017-09-25T02:27:10.380Z,0
2017-09-25T02:28:20.402Z,0
2017-09-25T02:29:30.432Z,0
2017-09-25T02:30:40.460Z,0
2017-09-25T02:31:50.828Z,0
2017-09-25T02:33:01.227Z,0
2017-09-25T02:34:11.590Z,0
2017-09-25T02:35:21.299Z,0
2017-09-25T02:36:31.647Z,0
2017-09-25T02:37:42.008Z,0
2017-09-25T02:38:52.409Z,0
2017-09-25T02:40:02.737Z,0
2017-09-25T02:41:13.085Z,0
2017-09-25T02:42:22.806Z,0
2017-09-25T02:43:33.154Z,0
2017-09-25T02:44:43.541Z,0
2017-09-25T02:45:53.915Z,0
2017-09-25T02:47:04.276Z,0
2017-09-25T02:48:14.623Z,0
2017-09-25T02:49:24.972Z,0
2017-09-25T02:50:35.368Z,0
2017-09-25T02:51:45.730Z,0
2017-09-25T02:52:56.086Z,0
2017-09-25T02:54:06.439Z,0
2017-09-25T02:55:16.785Z,0
2017-09-25T02:56:27.143Z,0
2017-09-25T02:57:37.486Z,0
2017-09-25T02:58:47.831Z,0
2017-09-25T02:59:58.178Z,0
2017-09-25T03:01:08.207Z,0
2017-09-25T03:02:18.565Z,0
2017-09-25T03:33:43.153Z,0
2017-09-25T03:34:53.494Z,0
2017-09-25T03:36:03.188Z,0
2017-09-25T03:37:13.518Z,0
2017-09-25T03:38:23.539Z,0
2017-09-25T03:39:33.876Z,0
2017-09-25T03:40:44.245Z,0
2017-09-25T03:41:54.570Z,0
2017-09-25T03:43:04.298Z,0
2017-09-25T03:44:14.018Z,0
2017-09-25T03:45:24.430Z,0
2017-09-25T03:46:34.787Z,0
2017-09-25T03:47:45.124Z,0
2017-09-25T03:48:55.470Z,0
2017-09-25T03:50:05.504Z,0
2017-09-25T03:51:15.583Z,0
2017-09-25T03:52:25.925Z,0
2017-09-25T03:53:36.274Z,0
2017-09-25T03:54:46.618Z,0
2017-09-25T03:55:57.187Z,0
2017-09-25T03:57:07.553Z,0
2017-09-25T03:58:17.906Z,0
2017-09-25T03:59:28.245Z,0
2017-09-25T04:00:38.273Z,0
2017-09-25T04:01:48.624Z,0
2017-09-25T04:02:59.036Z,0
2017-09-25T04:04:09.376Z,0
2017-09-25T04:05:19.730Z,0
2017-09-25T04:06:30.108Z,0
2017-09-25T04:07:40.450Z,0
2017-09-25T04:08:50.522Z,0
2017-09-25T04:10:00.548Z,0
2017-09-25T04:11:10.586Z,0
2017-09-25T04:12:20.957Z,0
2017-09-25T04:13:31.318Z,0
2017-09-25T04:14:41.436Z,0
2017-09-25T04:15:51.821Z,0
2017-09-25T04:17:01.855Z,0
2017-09-25T04:18:12.212Z,0
2017-09-25T04:19:22.568Z,0
2017-09-25T04:20:32.639Z,4
2017-09-25T04:21:42.985Z,0
2017-09-25T04:22:53.328Z,0
2017-09-25T04:24:03.690Z,4
2017-09-25T04:25:14.060Z,0
2017-09-25T04:26:24.447Z,4
2017-09-25T04:27:34.488Z,4
2017-09-25T04:28:44.827Z,4
2017-09-25T04:29:55.173Z,8
2017-09-25T04:31:05.538Z,8
2017-09-25T04:32:15.909Z,8
2017-09-25T04:33:26.267Z,12
2017-09-25T04:34:36.614Z,12
2017-09-25T04:35:46.952Z,16
2017-09-25T04:36:57.309Z,20
2017-09-25T04:38:07.388Z,20
2017-09-25T04:39:17.427Z,20
2017-09-25T04:40:27.467Z,24
2017-09-25T04:41:37.806Z,28
2017-09-25T04:42:48.145Z,36
2017-09-25T04:43:57.905Z,40
2017-09-25T04:45:08.257Z,44
2017-09-25T04:46:18.411Z,52
2017-09-25T04:47:28.137Z,60
2017-09-25T04:48:38.479Z,64
2017-09-25T04:49:48.846Z,72
2017-09-25T04:50:59.194Z,80
2017-09-25T04:52:09.555Z,88
2017-09-25T04:53:19.898Z,92
2017-09-25T04:54:29.928Z,96
2017-09-25T04:55:40.275Z,104
2017-09-25T04:56:50.628Z,112
2017-09-25T04:58:00.341Z,116
2017-09-25T04:59:10.396Z,124
2017-09-25T05:00:20.429Z,132
2017-09-25T05:01:32.076Z,144
2017-09-25T05:02:42.409Z,156
2017-09-25T05:03:52.761Z,168
2017-09-25T05:05:03.115Z,180
2017-09-25T05:06:13.482Z,192
2017-09-25T05:07:23.938Z,204
2017-09-25T05:08:34.281Z,216
2017-09-25T05:09:44.628Z,228
2017-09-25T05:10:54.661Z,240
2017-09-25T05:12:04.690Z,252
2017-09-25T05:13:14.759Z,264
2017-09-25T05:14:24.796Z,272
2017-09-25T05:15:35.140Z,284
2017-09-25T05:16:45.488Z,288
2017-09-25T05:17:55.839Z,300
2017-09-25T05:19:06.234Z,308
2017-09-25T05:20:16.577Z,320
2017-09-25T05:21:26.915Z,332
2017-09-25T05:22:37.269Z,344
2017-09-25T05:23:47.331Z,352
2017-09-25T05:24:57.680Z,360
2017-09-25T05:26:07.702Z,364
2017-09-25T05:27:18.062Z,372
2017-09-25T05:28:29.369Z,384
2017-09-25T05:29:39.762Z,396
2017-09-25T05:30:49.791Z,412
2017-09-25T05:32:00.170Z,432
2017-09-25T05:33:10.536Z,448
2017-09-25T05:34:20.884Z,468
2017-09-25T05:35:30.590Z,484
2017-09-25T05:36:40.631Z,496
2017-09-25T05:37:50.992Z,512
2017-09-25T05:39:01.337Z,516
2017-09-25T05:40:11.688Z,528
2017-09-25T05:41:21.729Z,536
2017-09-25T05:42:32.091Z,544
2017-09-25T05:43:42.438Z,548
2017-09-25T05:44:52.475Z,560
2017-09-25T05:46:02.511Z,568
2017-09-25T05:47:12.878Z,572
2017-09-25T05:48:23.233Z,588
2017-09-25T05:49:34.083Z,600
2017-09-25T05:50:44.492Z,616
2017-09-25T05:51:54.847Z,632
2017-09-25T05:53:04.572Z,652
2017-09-25T05:54:14.939Z,668
2017-09-25T05:55:24.956Z,688
2017-09-25T05:56:35.049Z,704
2017-09-25T05:57:44.757Z,720
2017-09-25T05:58:55.121Z,744
2017-09-25T06:00:05.152Z,764
2017-09-25T06:01:14.862Z,784
2017-09-25T06:02:25.197Z,800
2017-09-25T06:03:35.207Z,820
2017-09-25T06:04:46.036Z,840
2017-09-25T06:05:56.381Z,868
2017-09-25T06:07:06.735Z,888
2017-09-25T06:08:17.133Z,904
2017-09-25T06:09:27.481Z,920
2017-09-25T06:10:37.198Z,932
2017-09-25T06:11:47.537Z,940
2017-09-25T06:12:57.581Z,944
2017-09-25T06:14:08.001Z,940
2017-09-25T06:15:18.345Z,944
2017-09-25T06:16:28.680Z,948
2017-09-25T06:17:38.728Z,960
2017-09-25T06:18:48.766Z,980
2017-09-25T06:19:59.102Z,996
2017-09-25T06:21:08.835Z,1016
2017-09-25T06:22:19.172Z,1036
2017-09-25T06:23:29.519Z,1064
2017-09-25T06:24:39.864Z,1096
2017-09-25T06:25:49.891Z,1124
2017-09-25T06:26:59.920Z,1164
2017-09-25T06:28:10.270Z,1200
2017-09-25T06:29:20.603Z,1240
2017-09-25T06:30:30.623Z,1276
2017-09-25T06:31:40.645Z,1312
2017-09-25T06:32:50.676Z,1348
2017-09-25T06:34:01.023Z,1376
2017-09-25T06:35:11.054Z,1404
2017-09-25T06:36:21.407Z,1428
2017-09-25T06:37:31.802Z,1460
2017-09-25T06:38:41.848Z,1492
2017-09-25T06:39:51.903Z,1524
2017-09-25T06:41:01.951Z,1556
2017-09-25T06:42:11.977Z,1588
2017-09-25T06:43:22.329Z,1612
2017-09-25T06:44:32.688Z,1648
2017-09-25T06:45:43.027Z,1680
2017-09-25T06:46:53.369Z,1716
2017-09-25T06:48:03.711Z,1756
2017-09-25T06:49:14.049Z,1796
2017-09-25T06:50:24.388Z,1844
2017-09-25T06:51:34.736Z,1888
2017-09-25T06:52:44.816Z,1924
2017-09-25T06:53:55.156Z,1964
2017-09-25T06:55:05.197Z,1988
2017-09-25T06:56:15.230Z,2008
2017-09-25T06:57:25.563Z,2020
2017-09-25T06:58:35.931Z,2024
2017-09-25T06:59:46.272Z,2020
2017-09-25T07:00:56.615Z,2008
2017-09-25T07:02:07.177Z,2000
2017-09-25T07:03:17.532Z,1992
2017-09-25T07:04:27.941Z,1984
2017-09-25T07:05:38.337Z,1976
2017-09-25T07:06:48.387Z,1976
2017-09-25T07:07:59.935Z,1992
2017-09-25T07:09:09.962Z,2008
2017-09-25T07:10:20.422Z,2008
2017-09-25T07:11:30.474Z,1980
2017-09-25T07:12:40.520Z,1904
2017-09-25T07:13:50.878Z,1828
2017-09-25T07:15:01.219Z,1756
2017-09-25T07:16:11.618Z,1720
2017-09-25T07:17:21.971Z,1708
2017-09-25T07:18:32.341Z,1700
2017-09-25T07:19:42.364Z,1720
2017-09-25T07:20:52.691Z,1744
2017-09-25T07:22:03.092Z,1764
2017-09-25T07:23:13.453Z,1800
2017-09-25T07:24:23.805Z,1840
2017-09-25T07:25:34.176Z,1868
2017-09-25T07:26:44.517Z,1884
2017-09-25T07:27:54.914Z,1900
2017-09-25T07:29:05.301Z,1904
2017-09-25T07:30:15.658Z,1932
2017-09-25T07:31:25.992Z,1968
2017-09-25T07:32:36.381Z,1980
2017-09-25T07:33:46.786Z,1984
2017-09-25T07:34:57.145Z,2000
2017-09-25T07:36:07.498Z,2024
2017-09-25T07:37:17.850Z,2060
2017-09-25T07:38:28.199Z,2092
2017-09-25T07:39:38.547Z,2112
2017-09-25T07:40:48.577Z,2128
2017-09-25T07:41:58.601Z,2148
2017-09-25T07:43:08.664Z,2180
2017-09-25T07:44:19.008Z,2220
2017-09-25T07:45:29.356Z,2252
2017-09-25T07:46:39.712Z,2288
2017-09-25T07:47:50.056Z,2328
2017-09-25T07:49:00.402Z,2384
2017-09-25T07:50:10.863Z,2460
2017-09-25T07:51:21.266Z,2544
2017-09-25T07:52:31.596Z,2624
2017-09-25T07:53:41.945Z,2692
2017-09-25T07:54:52.281Z,2764
2017-09-25T07:56:01.987Z,2848
2017-09-25T07:57:12.344Z,2932
2017-09-25T07:58:22.059Z,3012
2017-09-25T07:59:32.407Z,3072
2017-09-25T08:00:42.744Z,3052
2017-09-25T08:01:53.101Z,2976
2017-09-25T08:03:03.458Z,2860
2017-09-25T08:04:13.805Z,2816
2017-09-25T08:05:23.845Z,2888
2017-09-25T08:06:34.192Z,3056
2017-09-25T08:07:44.524Z,3272
2017-09-25T08:08:54.556Z,3452
2017-09-25T08:10:04.899Z,3556
2017-09-25T08:11:15.261Z,3628
2017-09-25T08:12:25.606Z,3704
2017-09-25T08:13:35.940Z,3784
2017-09-25T08:14:46.364Z,3836
2017-09-25T08:15:56.711Z,3884
2017-09-25T08:17:07.059Z,3912
2017-09-25T08:18:17.120Z,3956
2017-09-25T08:19:27.467Z,4020
2017-09-25T08:20:37.868Z,4104
2017-09-25T08:21:47.896Z,4200
2017-09-25T08:22:58.251Z,4312
2017-09-25T08:24:08.598Z,4412
2017-09-25T08:25:18.967Z,4472
2017-09-25T08:26:29.053Z,4504
2017-09-25T08:27:39.401Z,4500
2017-09-25T08:28:49.762Z,4492
2017-09-25T08:29:59.792Z,4500
2017-09-25T08:31:09.824Z,4540
2017-09-25T08:32:20.176Z,4600
2017-09-25T08:33:30.527Z,4676
2017-09-25T08:34:41.264Z,4776
2017-09-25T08:35:51.646Z,4924
2017-09-25T08:37:01.845Z,5100
2017-09-25T08:38:12.248Z,5300
2017-09-25T08:39:22.601Z,5464
2017-09-25T08:40:34.209Z,5576
2017-09-25T08:41:43.932Z,5652
2017-09-25T08:42:54.276Z,5728
2017-09-25T08:44:04.343Z,5800
2017-09-25T08:45:14.376Z,5836
2017-09-25T08:46:24.397Z,5900
2017-09-25T08:47:34.759Z,5996
2017-09-25T08:48:45.096Z,6104
2017-09-25T08:49:55.497Z,6184
2017-09-25T08:51:05.223Z,6236
2017-09-25T08:52:15.563Z,6268
2017-09-25T08:53:25.899Z,6344
2017-09-25T08:54:36.240Z,6456
2017-09-25T08:55:46.316Z,6588
2017-09-25T08:56:56.660Z,6784
2017-09-25T08:58:06.680Z,7348
2017-09-25T08:59:16.733Z,6912
2017-09-25T09:00:26.778Z,6888
2017-09-25T09:01:37.180Z,6904
2017-09-25T09:02:47.535Z,7012
2017-09-25T09:03:57.883Z,7100
2017-09-25T09:05:08.240Z,7136
2017-09-25T09:06:17.972Z,7224
2017-09-25T09:07:29.422Z,7264
2017-09-25T09:08:39.486Z,7324
2017-09-25T09:09:49.831Z,7292
2017-09-25T09:11:00.187Z,7136
2017-09-25T09:12:10.537Z,6888
2017-09-25T09:13:20.584Z,6612
2017-09-25T09:14:30.934Z,6468
2017-09-25T09:15:41.304Z,6592
2017-09-25T09:16:51.352Z,6576
2017-09-25T09:18:02.500Z,6608
2017-09-25T09:19:12.908Z,6904
2017-09-25T09:20:23.293Z,7620
2017-09-25T09:21:33.636Z,7556
2017-09-25T09:22:43.353Z,7332
2017-09-25T09:23:53.700Z,7816
2017-09-25T09:25:04.109Z,7728
2017-09-25T09:26:14.455Z,7592
2017-09-25T09:27:24.805Z,6596
2017-09-25T09:28:35.187Z,7348
2017-09-25T09:29:45.532Z,7016
2017-09-25T09:30:55.931Z,7896
2017-09-25T09:32:06.276Z,8780
2017-09-25T09:33:16.337Z,9184
2017-09-25T09:34:26.379Z,9344
2017-09-25T09:35:36.432Z,9452
2017-09-25T09:36:46.488Z,7096
2017-09-25T09:37:56.850Z,6876
2017-09-25T09:39:07.232Z,8144
2017-09-25T09:40:17.278Z,9864
2017-09-25T09:41:27.333Z,9652
2017-09-25T09:42:37.412Z,9232
2017-09-25T09:43:47.785Z,6316
2017-09-25T09:44:57.830Z,7224
2017-09-25T09:46:08.187Z,6348
2017-09-25T09:47:19.437Z,9712
2017-09-25T09:48:29.731Z,9464
2017-09-25T09:49:39.801Z,9708
2017-09-25T09:50:50.163Z,9804
2017-09-25T09:52:00.518Z,9780
2017-09-25T09:53:10.907Z,9196
2017-09-25T09:54:21.376Z,5704
2017-09-25T09:55:31.844Z,5736
2017-09-25T09:56:42.728Z,5704
2017-09-25T09:57:52.764Z,5684
2017-09-25T09:59:03.125Z,5524
2017-09-25T10:00:13.223Z,5432
2017-09-25T10:01:23.274Z,5604
2017-09-25T10:02:33.627Z,7824
2017-09-25T10:03:45.107Z,5524
2017-09-25T10:04:55.471Z,8876
2017-09-25T10:06:05.566Z,8652
2017-09-25T10:07:15.914Z,8452
2017-09-25T10:08:25.947Z,8252
2017-09-25T10:09:36.297Z,7936
2017-09-25T10:10:46.338Z,6780
2017-09-25T10:11:56.752Z,6564
2017-09-25T10:13:06.776Z,8760
2017-09-25T10:14:16.815Z,8948
2017-09-25T10:15:27.182Z,5264
2017-09-25T10:16:37.542Z,4856
2017-09-25T10:17:47.969Z,4916
2017-09-25T10:18:57.683Z,5584
2017-09-25T10:20:07.427Z,5996
2017-09-25T10:21:17.143Z,6248
2017-09-25T10:22:27.506Z,5976
2017-09-25T10:23:37.913Z,6036
2017-09-25T10:24:48.271Z,6308
2017-09-25T10:25:58.656Z,6836
2017-09-25T10:27:09.004Z,7124
2017-09-25T10:28:19.358Z,10096
2017-09-25T10:29:29.784Z,8988
2017-09-25T10:30:40.149Z,9240
2017-09-25T10:31:50.502Z,7536
2017-09-25T10:33:03.602Z,8824
2017-09-25T10:34:15.831Z,8852
2017-09-25T10:35:26.216Z,8640
2017-09-25T10:36:36.586Z,6304
2017-09-25T10:37:46.954Z,7364
2017-09-25T10:38:57.014Z,8232
2017-09-25T10:40:07.368Z,4668
2017-09-25T10:41:17.796Z,5224
2017-09-25T10:42:27.848Z,7604
2017-09-25T10:43:38.217Z,8512
2017-09-25T10:44:48.276Z,7352
2017-09-25T10:45:58.648Z,7936
2017-09-25T10:47:08.778Z,8360
2017-09-25T10:48:19.149Z,8436
2017-09-25T10:49:29.496Z,8384
2017-09-25T10:50:39.849Z,8680
2017-09-25T10:51:50.183Z,8544
2017-09-25T10:53:00.577Z,8588
2017-09-25T10:54:10.957Z,8524
2017-09-25T10:55:21.300Z,5104
2017-09-25T10:56:31.647Z,4756
2017-09-25T10:57:42.005Z,4528
2017-09-25T10:58:52.090Z,4268
2017-09-25T11:00:02.439Z,4140
2017-09-25T11:01:12.485Z,4056
2017-09-25T11:02:22.524Z,4024
2017-09-25T11:03:32.875Z,4064
2017-09-25T11:04:43.221Z,4176
2017-09-25T11:05:53.597Z,4228
2017-09-25T11:07:03.663Z,4244
2017-09-25T11:08:14.021Z,4284
2017-09-25T11:09:24.368Z,4320
2017-09-25T11:10:34.721Z,4320
2017-09-25T11:11:45.086Z,4388
2017-09-25T11:12:55.478Z,4452
2017-09-25T11:14:05.830Z,4560
2017-09-25T11:15:16.189Z,4664
2017-09-25T11:16:26.556Z,4720
2017-09-25T11:17:37.507Z,4788
2017-09-25T11:18:47.881Z,4816
2017-09-25T11:19:58.230Z,4832
2017-09-25T11:21:08.566Z,4724
2017-09-25T11:22:18.609Z,4576
2017-09-25T11:23:28.949Z,4460
2017-09-25T11:24:39.297Z,4424
2017-09-25T11:25:49.634Z,4464
2017-09-25T11:26:59.656Z,4560
2017-09-25T11:28:10.047Z,4752
2017-09-25T11:29:19.778Z,5000
2017-09-25T11:30:30.130Z,5268
2017-09-25T11:31:40.491Z,5552
2017-09-25T11:32:50.860Z,5912
2017-09-25T11:34:00.950Z,6972
2017-09-25T11:35:11.005Z,7320
2017-09-25T11:36:21.050Z,9724
2017-09-25T11:37:31.405Z,8088
2017-09-25T11:38:41.775Z,10808
2017-09-25T11:39:51.802Z,8788
2017-09-25T11:41:01.852Z,7092
2017-09-25T11:42:11.894Z,8856
2017-09-25T11:43:22.241Z,10004
2017-09-25T11:44:32.597Z,7932
2017-09-25T11:45:42.640Z,5788
2017-09-25T11:46:53.020Z,4784
2017-09-25T11:48:03.042Z,6104
2017-09-25T11:49:13.404Z,9028
2017-09-25T11:50:23.447Z,7952
2017-09-25T11:51:33.851Z,4756
2017-09-25T11:52:43.557Z,4456
2017-09-25T11:53:53.576Z,4940
2017-09-25T11:55:03.942Z,5528
2017-09-25T11:56:14.295Z,5520
2017-09-25T11:57:24.696Z,7592
2017-09-25T11:58:35.839Z,9172
2017-09-25T11:59:46.219Z,5376
2017-09-25T12:00:55.931Z,4972
2017-09-25T12:02:06.533Z,4676
2017-09-25T12:03:16.574Z,4836
2017-09-25T12:04:26.943Z,5080
2017-09-25T12:05:37.282Z,7688
2017-09-25T12:06:47.631Z,9012
2017-09-25T12:07:57.982Z,5328
2017-09-25T12:09:08.373Z,5588
2017-09-25T12:10:18.425Z,6220
2017-09-25T12:11:28.461Z,4648
2017-09-25T12:12:38.818Z,4436
2017-09-25T12:13:49.171Z,4328
2017-09-25T12:14:59.569Z,4276
2017-09-25T12:16:09.918Z,4300
2017-09-25T12:17:20.279Z,4248
2017-09-25T12:18:30.634Z,4324
2017-09-25T12:19:40.975Z,4616
2017-09-25T12:20:51.021Z,5068
2017-09-25T12:22:01.396Z,7224
2017-09-25T12:23:11.756Z,5292
2017-09-25T12:24:21.786Z,5188
2017-09-25T12:25:32.128Z,5340
2017-09-25T12:26:42.214Z,7368
2017-09-25T12:27:51.927Z,4976
2017-09-25T12:29:02.272Z,4096
2017-09-25T12:30:12.630Z,3612
2017-09-25T12:31:22.963Z,3424
2017-09-25T12:32:33.362Z,3500
2017-09-25T12:33:43.732Z,3384
2017-09-25T12:34:54.073Z,3540
2017-09-25T12:36:04.109Z,3776
2017-09-25T12:37:14.456Z,3984
2017-09-25T12:38:24.545Z,4080
2017-09-25T12:39:34.909Z,4180
2017-09-25T12:40:44.948Z,4308
2017-09-25T12:41:54.973Z,4328
2017-09-25T12:43:05.332Z,4176
2017-09-25T12:44:15.061Z,4256
2017-09-25T12:45:25.425Z,4472
2017-09-25T12:46:35.450Z,4820
2017-09-25T12:47:45.788Z,5028
2017-09-25T12:48:56.137Z,4760
2017-09-25T12:50:06.235Z,4544
2017-09-25T12:51:16.581Z,4520
2017-09-25T12:52:26.936Z,4668
2017-09-25T12:53:37.217Z,7548
2017-09-25T12:54:47.582Z,7652
2017-09-25T12:55:57.936Z,5160
2017-09-25T12:57:07.976Z,4940
2017-09-25T12:58:18.019Z,4924
2017-09-25T12:59:28.370Z,4976
2017-09-25T13:00:38.721Z,5676
2017-09-25T13:01:48.803Z,4572
2017-09-25T13:02:59.145Z,4488
2017-09-25T13:04:09.189Z,4404
2017-09-25T13:05:19.542Z,4356
2017-09-25T13:06:29.898Z,4416
2017-09-25T13:07:40.294Z,4196
2017-09-25T13:08:50.645Z,4616
2017-09-25T13:10:01.000Z,4284
2017-09-25T13:11:11.038Z,4408
2017-09-25T13:12:21.085Z,4860
2017-09-25T13:13:31.187Z,5376
2017-09-25T13:14:41.541Z,5820
2017-09-25T13:15:51.874Z,6500
2017-09-25T13:17:01.922Z,7156
2017-09-25T13:18:11.963Z,5640
2017-09-25T13:19:21.996Z,5800
2017-09-25T13:20:32.343Z,7868
2017-09-25T13:21:42.382Z,7648
2017-09-25T13:22:52.745Z,6988
2017-09-25T13:24:03.102Z,7212
2017-09-25T13:25:13.564Z,5360
2017-09-25T13:26:23.937Z,4428
2017-09-25T13:27:34.277Z,4404
2017-09-25T13:28:44.322Z,5312
2017-09-25T13:29:54.704Z,6680
2017-09-25T13:31:04.475Z,4580
2017-09-25T13:32:14.516Z,5812
2017-09-25T13:33:24.889Z,4548
2017-09-25T13:34:35.226Z,4424
2017-09-25T13:35:45.574Z,4412
2017-09-25T13:36:55.622Z,4460
2017-09-25T13:38:05.958Z,4996
2017-09-25T13:39:16.327Z,4544
2017-09-25T13:40:26.675Z,4396
2017-09-25T13:41:37.032Z,4188
2017-09-25T13:42:47.129Z,3888
2017-09-25T13:43:57.472Z,3800
2017-09-25T13:45:07.836Z,3764
2017-09-25T13:46:17.878Z,3740
2017-09-25T13:47:28.228Z,3772
2017-09-25T13:48:38.675Z,4184
2017-09-25T13:49:49.044Z,3616
2017-09-25T13:50:59.400Z,3476
2017-09-25T13:52:09.135Z,3356
2017-09-25T13:53:19.501Z,3372
2017-09-25T13:54:29.908Z,5080
2017-09-25T13:55:40.259Z,4860
2017-09-25T13:56:50.610Z,4476
2017-09-25T13:58:00.968Z,4396
2017-09-25T14:03:00.200Z,2716
2017-09-25T14:04:10.248Z,4556
2017-09-25T14:05:20.426Z,3412
2017-09-25T14:06:30.912Z,4224
2017-09-25T14:07:41.384Z,4860
2017-09-25T14:10:07.392Z,4832
2017-09-25T14:11:17.829Z,3116
2017-09-25T14:12:28.188Z,3068
2017-09-25T14:13:38.206Z,3056
2017-09-25T14:14:48.246Z,2996
2017-09-25T14:15:58.649Z,3044
2017-09-25T14:17:09.016Z,3104
2017-09-25T14:18:19.058Z,3240
2017-09-25T14:19:29.087Z,5432
2017-09-25T14:20:39.435Z,5280
2017-09-25T14:21:49.804Z,5388
2017-09-25T14:22:59.893Z,5376
2017-09-25T14:24:10.292Z,5228
2017-09-25T14:25:20.652Z,5192
2017-09-25T14:26:31.005Z,5044
2017-09-25T14:27:42.209Z,5008
2017-09-25T14:28:52.956Z,4980
2017-09-25T14:30:03.293Z,4948
2017-09-25T14:31:13.670Z,4676
2017-09-25T14:32:24.034Z,4804
2017-09-25T14:33:34.060Z,4868
2017-09-25T14:34:44.506Z,4860
2017-09-25T14:35:54.864Z,4828
2017-09-25T14:37:05.210Z,4764
2017-09-25T14:38:15.279Z,4800
2017-09-25T14:39:25.339Z,4636
2017-09-25T14:40:35.746Z,4644
2017-09-25T14:41:46.119Z,4592
2017-09-25T14:42:55.831Z,4552
2017-09-25T14:44:05.846Z,4452
2017-09-25T14:45:16.201Z,4408
2017-09-25T14:46:26.289Z,4396
2017-09-25T14:47:36.632Z,4344
2017-09-25T14:48:46.989Z,4256
2017-09-25T14:49:57.026Z,4200
2017-09-25T14:51:07.383Z,4096
2017-09-25T14:52:17.795Z,4068
2017-09-25T14:53:28.146Z,3924
2017-09-25T14:54:38.490Z,3928
2017-09-25T14:55:48.848Z,3856
2017-09-25T14:56:59.211Z,3780
2017-09-25T14:58:09.551Z,3744
2017-09-25T14:59:19.924Z,3668
2017-09-25T15:00:30.283Z,3008
2017-09-25T15:01:40.334Z,3640
2017-09-25T15:02:50.359Z,3552
2017-09-25T15:04:00.396Z,3460
2017-09-25T15:05:10.416Z,3504
2017-09-25T15:06:20.783Z,3480
2017-09-25T15:07:31.158Z,3448
2017-09-25T15:08:41.518Z,3348
2017-09-25T15:09:51.294Z,3088
2017-09-25T15:11:01.660Z,2632
2017-09-25T15:12:12.029Z,3236
2017-09-25T15:13:22.060Z,3144
2017-09-25T15:14:32.445Z,2868
2017-09-25T15:15:42.851Z,2088
2017-09-25T15:16:53.210Z,2044
2017-09-25T15:18:03.562Z,2112
2017-09-25T15:19:13.919Z,2004
2017-09-25T15:20:23.962Z,1940
2017-09-25T15:21:34.376Z,2876
2017-09-25T15:22:44.738Z,2868
2017-09-25T15:23:54.760Z,2796
2017-09-25T15:25:05.111Z,2776
2017-09-25T15:26:14.844Z,2828
2017-09-25T15:27:25.250Z,2800
2017-09-25T15:28:35.270Z,2784
2017-09-25T15:29:45.316Z,2732
2017-09-25T15:30:55.351Z,2676
2017-09-25T15:32:05.684Z,2660
2017-09-25T15:33:16.089Z,2608
2017-09-25T15:34:26.470Z,2580
2017-09-25T15:35:36.492Z,2572
2017-09-25T15:36:46.751Z,2548
2017-09-25T15:37:57.110Z,2556
2017-09-25T15:39:07.191Z,2548
2017-09-25T15:40:17.542Z,2048
2017-09-25T15:41:27.896Z,2496
2017-09-25T15:42:38.226Z,2492
2017-09-25T15:43:48.261Z,2464
2017-09-25T15:44:58.676Z,2420
2017-09-25T15:46:08.750Z,2372
2017-09-25T15:47:19.114Z,2312
2017-09-25T15:48:29.129Z,2260
2017-09-25T15:49:39.489Z,2200
2017-09-25T15:50:49.909Z,2148
2017-09-25T15:51:59.939Z,2088
2017-09-25T15:53:10.692Z,2024
2017-09-25T15:54:20.729Z,1964
2017-09-25T15:55:30.755Z,1892
2017-09-25T15:56:41.146Z,1872
2017-09-25T15:57:51.192Z,1812
2017-09-25T15:59:00.905Z,1752
2017-09-25T16:00:10.618Z,1700
2017-09-25T16:01:20.993Z,1652
2017-09-25T16:02:31.392Z,1624
2017-09-25T16:03:41.739Z,1592
2017-09-25T16:04:52.091Z,1548
2017-09-25T16:06:02.454Z,1476
2017-09-25T16:07:12.797Z,1428
2017-09-25T16:08:23.145Z,1384
2017-09-25T16:09:33.478Z,1332
2017-09-25T16:10:43.865Z,1284
2017-09-25T16:11:53.884Z,1232
2017-09-25T16:13:04.226Z,1180
2017-09-25T16:14:14.622Z,1132
2017-09-25T16:15:24.970Z,1084
2017-09-25T16:16:35.325Z,1032
2017-09-25T16:17:45.704Z,980
2017-09-25T16:18:56.074Z,924
2017-09-25T16:20:06.471Z,872
2017-09-25T16:21:16.817Z,824
2017-09-25T16:22:27.152Z,772
2017-09-25T16:23:37.195Z,728
2017-09-25T16:24:47.547Z,680
2017-09-25T16:25:57.327Z,632
2017-09-25T16:27:07.033Z,588
2017-09-25T16:28:17.402Z,540
2017-09-25T16:29:27.756Z,500
2017-09-25T16:30:37.803Z,460
2017-09-25T16:31:48.199Z,420
2017-09-25T16:32:58.243Z,384
2017-09-25T16:34:08.590Z,352
2017-09-25T16:35:18.955Z,316
2017-09-25T16:36:29.325Z,288
2017-09-25T16:37:39.686Z,260
2017-09-25T16:38:49.741Z,236
2017-09-25T16:39:59.772Z,208